createdAt,value
2018-11-27T00:02:27.421Z,34.67
2018-11-27T00:05:04.398Z,36.83
2018-11-27T00:07:39.423Z,40.60
2018-11-27T00:12:48.435Z,41.33
2018-11-27T00:17:56.384Z,30.77
2018-11-27T00:20:31.813Z,37.47
2018-11-27T00:23:06.914Z,36.87
2018-11-27T00:25:42.533Z,36.93
2018-11-27T00:28:17.295Z,38.07
2018-11-27T00:30:52.292Z,38.07
2018-11-27T00:35:59.951Z,36.17
2018-11-27T00:38:35.290Z,38.08
2018-11-27T00:41:09.922Z,43.13
2018-11-27T00:43:44.725Z,39.55
2018-11-27T00:46:19.285Z,37.90
2018-11-27T00:51:27.279Z,38.47
2018-11-27T00:56:35.304Z,38.13
2018-11-27T01:01:43.296Z,35.73
2018-11-27T01:06:50.946Z,35.03
2018-11-27T01:09:26.299Z,32.17
2018-11-27T01:12:01.287Z,31.73
2018-11-27T01:17:09.281Z,36.77
2018-11-27T01:22:17.319Z,37.73
2018-11-27T01:27:25.340Z,36.97
2018-11-27T01:32:33.418Z,43.50
2018-11-27T01:35:08.905Z,40.33
2018-11-27T01:37:43.954Z,38.87
2018-11-27T01:40:25.343Z,41.23
2018-11-27T01:45:37.285Z,39.00
2018-11-27T01:50:45.293Z,40.97
2018-11-27T01:55:55.277Z,40.52
2018-11-27T02:01:02.947Z,31.87
2018-11-27T02:03:38.305Z,36.47
2018-11-27T02:06:13.409Z,30.70
2018-11-27T02:08:48.337Z,37.33
2018-11-27T02:11:22.951Z,33.47
2018-11-27T02:13:57.889Z,36.17
2018-11-27T02:16:32.480Z,35.13
2018-11-27T02:19:07.399Z,31.87
2018-11-27T02:21:42.368Z,35.75
2018-11-27T02:24:17.386Z,29.63
2018-11-27T02:26:51.943Z,29.93
2018-11-27T02:29:27.294Z,31.65
2018-11-27T02:32:02.350Z,26.90
2018-11-27T02:42:16.285Z,31.33
2018-11-27T02:55:02.969Z,32.90
2018-11-27T02:57:38.371Z,34.47
2018-11-27T03:00:15.515Z,35.03
2018-11-27T03:02:50.408Z,27.47
2018-11-27T03:05:41.633Z,36.67
2018-11-27T03:08:16.575Z,36.33
2018-11-27T03:10:51.453Z,29.40
2018-11-27T03:13:26.295Z,34.90
2018-11-27T03:16:01.290Z,27.70
2018-11-27T03:21:09.453Z,31.83
2018-11-27T03:23:44.336Z,31.37
2018-11-27T03:26:19.335Z,37.60
2018-11-27T03:28:54.289Z,32.20
2018-11-27T03:31:29.414Z,42.70
2018-11-27T03:34:04.409Z,31.73
2018-11-27T03:36:38.951Z,39.53
2018-11-27T03:39:17.368Z,31.15
2018-11-27T03:46:58.386Z,33.27
2018-11-27T03:52:06.295Z,35.83
2018-11-27T03:54:42.362Z,36.65
2018-11-27T04:02:22.841Z,33.80
2018-11-27T04:04:57.439Z,31.50
2018-11-27T04:10:05.411Z,33.30
2018-11-27T04:15:13.330Z,34.10
2018-11-27T04:17:48.299Z,31.60
2018-11-27T04:25:30.766Z,32.27
2018-11-27T04:28:05.387Z,29.37
2018-11-27T04:30:42.342Z,28.80
2018-11-27T04:33:17.297Z,32.70
2018-11-27T04:35:52.305Z,34.40
2018-11-27T04:38:27.422Z,40.97
2018-11-27T04:41:01.955Z,35.17
2018-11-27T04:43:37.148Z,33.90
2018-11-27T04:46:12.293Z,33.48
2018-11-27T04:51:20.292Z,29.77
2018-11-27T04:56:28.041Z,32.03
2018-11-27T04:59:03.301Z,35.83
2018-11-27T05:01:38.003Z,31.93
2018-11-27T05:04:13.402Z,33.28
2018-11-27T05:09:21.401Z,32.70
2018-11-27T05:17:02.145Z,30.40
2018-11-27T05:19:37.395Z,30.00
2018-11-27T05:24:45.962Z,34.17
2018-11-27T05:27:20.916Z,35.60
2018-11-27T05:29:55.821Z,34.77
2018-11-27T05:32:30.967Z,33.97
2018-11-27T05:35:06.305Z,32.07
2018-11-27T05:37:41.300Z,32.13
2018-11-27T05:40:26.978Z,34.77
2018-11-27T05:43:18.467Z,39.30
2018-11-27T05:45:53.300Z,36.48
2018-11-27T05:51:01.382Z,36.57
2018-11-27T05:53:36.298Z,37.70
2018-11-27T05:56:11.399Z,36.65
2018-11-27T05:58:46.458Z,41.90
2018-11-27T06:01:21.297Z,33.70
2018-11-27T06:06:29.704Z,37.20
2018-11-27T06:09:04.801Z,36.23
2018-11-27T06:11:39.959Z,39.83
2018-11-27T06:14:15.324Z,36.20
2018-11-27T06:16:49.960Z,40.80
2018-11-27T06:19:25.182Z,42.35
2018-11-27T06:21:59.607Z,37.63
2018-11-27T06:24:34.453Z,40.13
2018-11-27T06:29:42.909Z,36.97
2018-11-27T06:32:21.375Z,34.97
2018-11-27T06:40:21.992Z,37.53
2018-11-27T06:42:57.086Z,38.57
2018-11-27T06:45:34.427Z,37.60
2018-11-27T06:48:09.582Z,37.53
2018-11-27T06:50:44.355Z,32.27
2018-11-27T06:53:19.293Z,35.10
2018-11-27T06:55:55.918Z,32.70
2018-11-27T06:58:31.359Z,34.88
2018-11-27T07:01:07.420Z,39.20
2018-11-27T07:06:16.433Z,31.00
2018-11-27T07:08:51.443Z,35.60
2018-11-27T07:11:26.297Z,32.73
2018-11-27T07:16:34.380Z,33.55
2018-11-27T07:24:15.795Z,29.73
2018-11-27T07:26:52.939Z,33.55
2018-11-27T07:29:27.524Z,31.93
2018-11-27T07:34:35.766Z,28.67
2018-11-27T07:37:10.464Z,29.03
2018-11-27T07:39:45.484Z,31.30
2018-11-27T07:42:20.465Z,30.00
2018-11-27T07:44:55.312Z,30.93
2018-11-27T07:47:30.312Z,30.07
2018-11-27T07:55:29.549Z,29.23
2018-11-27T07:58:04.468Z,26.30
2018-11-27T08:03:14.288Z,26.48
2018-11-27T08:05:48.806Z,29.83
2018-11-27T08:08:23.961Z,26.40
2018-11-27T08:10:58.486Z,22.63
2018-11-27T08:13:33.292Z,20.90
2018-11-27T08:16:08.294Z,19.90
2018-11-27T08:21:16.405Z,23.77
2018-11-27T08:23:51.417Z,24.90
2018-11-27T08:26:27.957Z,22.13
2018-11-27T08:29:06.403Z,20.43
2018-11-27T08:31:41.314Z,25.97
2018-11-27T08:36:50.740Z,24.85
2018-11-27T08:39:25.374Z,21.33
2018-11-27T08:42:00.299Z,22.93
2018-11-27T08:47:08.508Z,23.37
2018-11-27T08:54:41.435Z,18.87
2018-11-27T08:57:16.276Z,21.83
2018-11-27T09:02:24.304Z,20.67
2018-11-27T09:07:48.588Z,20.72
2018-11-27T09:13:00.825Z,25.23
2018-11-27T09:15:39.404Z,24.00
2018-11-27T09:18:26.444Z,27.00
2018-11-27T09:21:01.404Z,21.47
2018-11-27T09:23:36.292Z,22.30
2018-11-27T09:26:11.429Z,24.20
2018-11-27T09:28:46.744Z,21.47
2018-11-27T09:31:21.562Z,24.23
2018-11-27T09:33:56.397Z,27.00
2018-11-27T09:36:31.344Z,25.62
2018-11-27T09:44:13.300Z,26.62
2018-11-27T09:46:48.343Z,26.33
2018-11-27T09:49:24.353Z,23.50
2018-11-27T09:51:59.297Z,23.27
2018-11-27T09:54:34.288Z,28.40
2018-11-27T09:57:09.340Z,22.43
2018-11-27T09:59:44.969Z,27.10
2018-11-27T10:02:20.142Z,27.33
2018-11-27T10:04:55.353Z,23.13
2018-11-27T10:07:30.303Z,27.63
2018-11-27T10:10:05.354Z,24.77
2018-11-27T10:15:18.965Z,31.67
2018-11-27T10:18:13.742Z,29.07
2018-11-27T10:20:48.800Z,25.60
2018-11-27T10:23:24.360Z,29.80
2018-11-27T10:25:59.314Z,28.43
2018-11-27T10:28:34.421Z,27.33
2018-11-27T10:31:09.380Z,31.25
2018-11-27T10:33:44.400Z,30.30
2018-11-27T10:36:19.303Z,24.90
2018-11-27T10:41:27.362Z,29.73
2018-11-27T10:44:02.293Z,26.97
2018-11-27T10:46:37.423Z,29.20
2018-11-27T10:49:12.493Z,33.58
2018-11-27T10:54:20.384Z,33.63
2018-11-27T10:56:55.302Z,35.90
2018-11-27T10:59:30.945Z,31.47
2018-11-27T11:02:22.685Z,31.50
2018-11-27T11:04:57.402Z,31.50
2018-11-27T11:07:32.472Z,33.37
2018-11-27T11:10:07.481Z,34.60
2018-11-27T11:12:42.401Z,31.30
2018-11-27T11:15:17.423Z,29.40
2018-11-27T11:20:25.911Z,29.47
2018-11-27T11:23:01.285Z,28.90
2018-11-27T11:25:37.322Z,29.57
2018-11-27T11:30:47.394Z,32.50
2018-11-27T11:33:22.422Z,32.17
2018-11-27T11:35:57.295Z,33.50
2018-11-27T11:41:06.134Z,39.50
2018-11-27T11:46:14.301Z,34.43
2018-11-27T11:51:23.282Z,32.67
2018-11-27T11:56:31.238Z,36.90
2018-11-27T11:59:06.399Z,41.20
2018-11-27T12:04:15.146Z,38.30
2018-11-27T12:06:49.959Z,32.63
2018-11-27T12:09:25.143Z,36.03
2018-11-27T12:12:00.355Z,38.97
2018-11-27T12:17:08.289Z,33.83
2018-11-27T12:22:16.333Z,32.67
2018-11-27T12:29:57.325Z,35.90
2018-11-27T12:32:32.409Z,44.13
2018-11-27T12:40:05.324Z,33.30
2018-11-27T12:42:40.310Z,35.40
2018-11-27T12:45:17.339Z,41.17
2018-11-27T12:47:52.445Z,42.20
2018-11-27T12:50:50.442Z,32.20
2018-11-27T12:53:25.456Z,36.57
2018-11-27T12:56:00.295Z,33.90
2018-11-27T13:03:42.380Z,37.08
2018-11-27T13:06:17.083Z,35.20
2018-11-27T13:08:52.366Z,32.98
2018-11-27T13:11:27.299Z,36.43
2018-11-27T13:16:35.282Z,35.83
2018-11-27T13:21:43.284Z,36.07
2018-11-27T13:26:51.128Z,38.93
2018-11-27T13:29:26.420Z,38.20
2018-11-27T13:32:00.951Z,34.80
2018-11-27T13:34:36.172Z,34.53
2018-11-27T13:37:10.950Z,31.73
2018-11-27T13:39:46.201Z,30.13
2018-11-27T13:47:44.560Z,32.05
2018-11-27T13:50:20.380Z,31.47
2018-11-27T13:55:28.363Z,36.20
2018-11-27T14:00:37.177Z,32.98
2018-11-27T14:03:12.285Z,30.12
2018-11-27T14:05:47.293Z,33.17
2018-11-27T14:10:55.281Z,39.97
2018-11-27T14:16:03.302Z,29.43
2018-11-27T14:21:11.346Z,35.70
2018-11-27T14:26:19.293Z,32.03
2018-11-27T14:28:54.290Z,31.23
2018-11-27T14:31:29.085Z,28.73
2018-11-27T14:34:04.282Z,28.63
2018-11-27T14:36:40.291Z,31.87
2018-11-27T14:41:49.276Z,31.53
2018-11-27T14:46:56.951Z,27.70
2018-11-27T14:49:32.277Z,32.93
2018-11-27T14:52:07.366Z,30.47
2018-11-27T14:54:42.148Z,29.90
2018-11-27T14:57:17.275Z,32.17
2018-11-27T15:02:25.282Z,33.47
2018-11-27T15:07:33.201Z,31.93
2018-11-27T15:10:09.359Z,28.57
2018-11-27T15:15:17.971Z,36.43
2018-11-27T15:17:53.340Z,39.60
2018-11-27T15:20:28.777Z,32.03
2018-11-27T15:23:03.955Z,32.80
2018-11-27T15:25:46.749Z,31.83
2018-11-27T15:28:21.579Z,26.77
2018-11-27T15:30:56.379Z,31.70
2018-11-27T15:33:31.282Z,27.10
2018-11-27T15:36:06.427Z,31.62
2018-11-27T15:38:41.355Z,29.00
2018-11-27T15:41:16.384Z,26.50
2018-11-27T15:43:51.952Z,27.83
2018-11-27T15:46:26.884Z,28.67
2018-11-27T15:49:01.884Z,29.10
2018-11-27T15:51:36.479Z,33.43
2018-11-27T15:54:11.391Z,31.00
2018-11-27T15:56:46.285Z,31.33
2018-11-27T16:01:54.341Z,25.33
2018-11-27T16:04:29.361Z,23.47
2018-11-27T16:07:04.153Z,29.17
2018-11-27T16:09:39.431Z,29.35
2018-11-27T16:12:14.233Z,26.77
2018-11-27T16:17:24.277Z,30.20
2018-11-27T16:25:05.504Z,34.73
2018-11-27T16:27:40.275Z,39.37
2018-11-27T16:30:37.382Z,35.67
2018-11-27T16:33:12.428Z,26.70
2018-11-27T16:35:47.304Z,28.40
2018-11-27T16:38:22.361Z,27.17
2018-11-27T16:40:57.282Z,26.53
2018-11-27T16:46:04.942Z,30.17
2018-11-27T16:48:39.954Z,29.40
2018-11-27T16:51:14.453Z,28.23
2018-11-27T16:53:49.290Z,30.13
2018-11-27T16:56:24.301Z,31.55
2018-11-27T16:58:59.295Z,31.40
2018-11-27T17:01:33.959Z,35.60
2018-11-27T17:04:09.147Z,26.57
2018-11-27T17:06:44.278Z,29.80
2018-11-27T17:11:54.460Z,32.33
2018-11-27T17:14:29.314Z,29.77
2018-11-27T17:17:04.277Z,28.60
2018-11-27T17:19:39.600Z,27.30
2018-11-27T17:22:14.323Z,29.83
2018-11-27T17:27:22.280Z,40.47
2018-11-27T17:35:05.357Z,34.43
2018-11-27T17:37:39.863Z,33.37
2018-11-27T17:40:16.384Z,32.90
2018-11-27T17:42:51.285Z,31.70
2018-11-27T17:45:47.301Z,47.37
2018-11-27T17:50:55.305Z,29.00
2018-11-27T17:56:03.296Z,35.83
2018-11-27T18:01:10.730Z,24.70
2018-11-27T18:03:45.466Z,30.80
2018-11-27T18:06:20.365Z,26.15
2018-11-27T18:08:55.151Z,22.00
2018-11-27T18:11:29.896Z,22.27
2018-11-27T18:14:04.961Z,25.17
2018-11-27T18:19:12.770Z,23.03
2018-11-27T18:21:47.297Z,24.87
2018-11-27T18:26:56.289Z,24.83
2018-11-27T18:32:04.954Z,24.57
2018-11-27T18:34:40.577Z,23.03
2018-11-27T18:37:15.466Z,24.90
2018-11-27T18:39:50.961Z,24.07
2018-11-27T18:42:25.768Z,23.23
2018-11-27T18:45:00.977Z,25.53
2018-11-27T18:47:35.904Z,23.63
2018-11-27T18:50:12.943Z,25.23
2018-11-27T18:52:47.711Z,23.73
2018-11-27T18:56:16.306Z,22.60
2018-11-27T19:01:24.273Z,25.00
2018-11-27T19:06:32.022Z,70.70
2018-11-27T19:09:08.320Z,43.43
2018-11-27T19:11:43.353Z,24.93
2018-11-27T19:16:51.661Z,32.53
2018-11-27T19:19:27.365Z,24.60
2018-11-27T19:22:02.305Z,26.75
2018-11-27T19:29:44.957Z,25.43
2018-11-27T19:32:19.747Z,22.17
2018-11-27T19:34:55.351Z,23.57
2018-11-27T19:37:30.282Z,27.23
2018-11-27T19:40:06.352Z,27.77
2018-11-27T19:42:41.156Z,22.00
2018-11-27T19:45:41.300Z,25.30
2018-11-27T19:50:49.538Z,22.00
2018-11-27T19:53:24.365Z,23.40
2018-11-27T20:01:05.291Z,23.77
2018-11-27T20:11:19.123Z,23.07
2018-11-27T20:13:54.144Z,25.00
2018-11-27T20:16:29.231Z,22.02
2018-11-27T20:21:37.284Z,25.55
2018-11-27T20:26:45.459Z,24.50
2018-11-27T20:29:20.911Z,24.10
2018-11-27T20:31:55.961Z,20.88
2018-11-27T20:34:31.472Z,21.97
2018-11-27T20:37:06.289Z,21.70
2018-11-27T20:42:14.952Z,24.18
2018-11-27T20:44:50.339Z,28.90
2018-11-27T20:47:25.319Z,22.73
2018-11-27T20:52:33.309Z,23.60
2018-11-27T20:55:09.346Z,26.57
2018-11-27T20:57:45.300Z,26.20
2018-11-27T21:00:46.286Z,23.35
2018-11-27T21:05:54.109Z,25.25
2018-11-27T21:08:29.297Z,22.15
2018-11-27T21:15:58.306Z,25.87
2018-11-27T21:21:06.285Z,22.10
2018-11-27T21:23:41.395Z,24.40
2018-11-27T21:26:15.522Z,21.93
2018-11-27T21:28:50.278Z,20.73
2018-11-27T21:31:25.115Z,21.10
2018-11-27T21:34:00.310Z,22.23
2018-11-27T21:36:35.315Z,19.37
2018-11-27T21:39:12.310Z,22.80
2018-11-27T21:46:53.888Z,19.20
2018-11-27T21:49:29.307Z,26.65
2018-11-27T21:52:04.293Z,20.60
2018-11-27T21:58:27.343Z,22.87
2018-11-27T22:03:35.276Z,22.40
2018-11-27T22:06:09.956Z,19.63
2018-11-27T22:08:53.887Z,21.23
2018-11-27T22:11:28.923Z,24.20
2018-11-27T22:14:03.784Z,20.70
2018-11-27T22:16:39.287Z,23.92
2018-11-27T22:21:47.112Z,21.95
2018-11-27T22:24:23.264Z,18.67
2018-11-27T22:26:58.290Z,21.87
2018-11-27T22:32:09.589Z,20.27
2018-11-27T22:34:44.949Z,21.30
2018-11-27T22:37:19.690Z,23.67
2018-11-27T22:39:55.007Z,24.20
2018-11-27T22:42:29.984Z,23.20
2018-11-27T22:45:05.503Z,26.50
2018-11-27T22:50:21.312Z,23.35
2018-11-27T22:55:32.631Z,22.85
2018-11-27T22:58:05.477Z,21.60
2018-11-27T23:00:54.279Z,25.63
2018-11-27T23:06:01.991Z,27.30
2018-11-27T23:08:37.286Z,29.00
2018-11-27T23:11:12.292Z,29.50
2018-11-27T23:16:20.287Z,28.10
2018-11-27T23:21:28.411Z,27.60
2018-11-27T23:24:03.284Z,35.90
2018-11-27T23:26:38.302Z,25.40
2018-11-27T23:31:46.295Z,26.67
2018-11-27T23:34:21.410Z,28.80
2018-11-27T23:36:56.297Z,34.05
2018-11-27T23:39:31.357Z,31.10
2018-11-27T23:42:06.665Z,23.30
2018-11-27T23:44:41.824Z,26.17
2018-11-27T23:47:16.467Z,27.03
2018-11-27T23:49:51.460Z,23.40
2018-11-27T23:52:26.309Z,27.20
2018-11-27T23:57:34.287Z,27.47
